Time;durP1;ratioP1;P1;durP2;ratioP2;P2;SDS_P1;SDS_P2;PMS_P1;PMS_P2;Temp;Humidity;BMP_temperature;BMP_pressure;BME280_temperature;BME280_humidity;BME280_pressure;Samples;Min_cycle;Max_cycle;Signal;HPM_P1;HPM_P2
2022/01/28 00:03:09;;;;;;;5.80;3.70;;;;;;;5.01;83.68;101187.78;10416369;28;20098;-72
2022/01/28 00:08:10;;;;;;;5.90;3.58;;;;;;;5.04;83.05;101176.25;10418854;28;20045;-71
2022/01/28 00:39:34;;;;;;;6.03;3.97;;;;;;;5.19;82.09;101206.41;10397439;28;20235;-71
2022/01/28 00:44:36;;;;;;;5.38;3.03;;;;;;;5.27;81.93;101226.28;10385900;28;20573;-71
2022/01/28 00:49:38;;;;;;;5.07;3.40;;;;;;;5.38;81.74;101240.81;10401020;28;20121;-71
2022/01/28 00:54:39;;;;;;;6.32;2.67;;;;;;;5.21;81.84;101247.69;10379372;28;20475;-69
2022/01/28 00:59:40;;;;;;;2.95;2.38;;;;;;;5.01;83.23;101261.69;10396889;28;20145;-72
2022/01/28 01:04:42;;;;;;;4.20;2.97;;;;;;;5.03;83.27;101274.81;10390867;28;20640;-71
2022/01/28 01:09:45;;;;;;;4.68;2.53;;;;;;;4.92;83.90;101285.81;10397374;28;20116;-71
2022/01/28 01:14:47;;;;;;;2.85;2.08;;;;;;;5.05;83.24;101302.03;10399442;28;20102;-70
2022/01/28 01:19:53;;;;;;;3.50;2.53;;;;;;;5.05;83.15;101321.34;10400592;28;20077;-70
2022/01/28 01:25:03;;;;;;;3.80;1.88;;;;;;;4.92;82.00;101320.13;10402403;28;20175;-70
2022/01/28 01:30:05;;;;;;;3.00;1.95;;;;;;;5.02;82.02;101316.19;10388270;28;20159;-72
2022/01/28 01:35:07;;;;;;;3.05;1.75;;;;;;;4.96;81.89;101311.16;10396997;28;20108;-70
2022/01/28 01:40:09;;;;;;;3.80;1.30;;;;;;;4.96;81.77;101316.44;10383791;28;20132;-71
2022/01/28 01:56:05;;;;;;;4.10;2.15;;;;;;;4.88;80.91;101324.66;10434112;22;20144;-61
2022/01/28 02:01:07;;;;;;;8.45;1.65;;;;;;;4.63;80.79;101277.28;10471766;28;20052;-60
2022/01/28 02:06:09;;;;;;;2.80;1.10;;;;;;;4.93;80.08;101333.25;10467572;28;20492;-61
2022/01/28 02:11:11;;;;;;;4.40;1.77;;;;;;;4.95;79.77;101344.63;10474232;28;20146;-60
2022/01/28 02:16:12;;;;;;;6.50;1.70;;;;;;;4.91;79.28;101343.00;10490513;28;20055;-61
2022/01/28 02:21:16;;;;;;;4.57;1.50;;;;;;;4.86;78.79;101352.88;10486924;28;20048;-62
2022/01/28 02:26:18;;;;;;;5.40;1.70;;;;;;;4.94;78.56;101350.81;10485867;28;20135;-61
2022/01/28 02:31:23;;;;;;;2.78;1.60;;;;;;;4.94;78.37;101345.53;10489710;28;20135;-63
2022/01/28 02:36:25;;;;;;;4.35;1.98;;;;;;;4.98;78.43;101355.97;10488406;28;20037;-61
2022/01/28 02:41:31;;;;;;;4.80;1.67;;;;;;;5.03;78.70;101359.25;10492776;28;20123;-61
2022/01/28 02:46:35;;;;;;;5.55;1.88;;;;;;;4.91;78.73;101369.41;10497774;28;20112;-60
2022/01/28 02:51:37;;;;;;;6.03;1.75;;;;;;;4.94;78.15;101350.81;10489355;28;20131;-60
2022/01/28 02:56:46;;;;;;;5.80;1.88;;;;;;;5.10;77.91;101376.56;10487120;28;20050;-61
2022/01/28 03:01:48;;;;;;;3.97;1.20;;;;;;;5.04;78.26;101358.34;10474275;28;20048;-60
2022/01/28 03:06:49;;;;;;;1.95;1.10;;;;;;;4.89;78.27;101350.09;10463177;28;20102;-60
2022/01/28 03:12:13;;;;;;;3.22;1.38;;;;;;;5.04;78.10;101376.81;10473502;28;20607;-61
2022/01/28 03:17:47;;;;;;;3.35;1.23;;;;;;;4.89;78.57;101373.00;10479028;28;20368;-62
2022/01/28 03:22:37;;;;;;;3.00;1.00;;;;;;;4.75;78.40;101387.59;10486247;28;20472;-60
2022/01/28 03:27:52;;;;;;;2.35;1.42;;;;;;;4.66;77.78;101401.13;10487540;28;20057;-61
2022/01/28 03:32:54;;;;;;;3.25;1.40;;;;;;;4.62;77.31;101391.59;10464452;28;20052;-61
2022/01/28 03:38:07;;;;;;;5.25;1.77;;;;;;;4.52;75.43;101409.56;10482821;28;20663;-61
2022/01/28 03:43:09;;;;;;;5.38;2.05;;;;;;;4.42;74.46;101410.81;10481176;28;20044;-61
2022/01/28 03:48:10;;;;;;;6.32;1.67;;;;;;;4.48;74.56;101421.13;10484313;28;20044;-60
2022/01/28 03:53:11;;;;;;;4.93;1.95;;;;;;;4.38;74.31;101415.34;10484225;28;20048;-61
2022/01/28 03:58:14;;;;;;;5.55;2.17;;;;;;;4.59;74.85;101444.47;10493760;28;20047;-60
2022/01/28 04:13:50;;;;;;;5.20;1.85;;;;;;;4.63;77.21;101464.53;10481679;28;20500;-60
2022/01/28 04:18:51;;;;;;;5.40;2.40;;;;;;;4.65;77.36;101464.47;10483776;28;20055;-59
2022/01/28 04:23:52;;;;;;;3.08;1.63;;;;;;;4.63;77.67;101466.31;10481147;28;20056;-62
2022/01/28 04:28:54;;;;;;;4.03;1.92;;;;;;;4.64;77.22;101457.47;10474339;28;20147;-61
2022/01/28 04:33:56;;;;;;;7.18;2.10;;;;;;;4.62;77.27;101459.31;10466820;28;20138;-62
2022/01/28 04:39:07;;;;;;;6.70;2.15;;;;;;;4.69;76.66;101466.94;10479039;28;20040;-62
2022/01/28 04:44:16;;;;;;;6.82;1.73;;;;;;;4.73;75.92;101457.16;10481861;28;20052;-62
2022/01/28 04:49:26;;;;;;;7.13;1.77;;;;;;;4.67;75.19;101465.28;10481222;28;20058;-63
2022/01/28 05:00:05;;;;;;;9.88;2.30;;;;;;;4.56;75.48;101471.81;10489026;28;20043;-62
2022/01/28 05:06:09;;;;;;;6.85;2.28;;;;;;;4.36;74.89;101474.31;10486884;28;20063;-62
2022/01/28 05:11:07;;;;;;;8.00;1.80;;;;;;;4.45;72.07;101495.06;10479691;28;20040;-61
2022/01/28 05:26:38;;;;;;;3.80;1.60;;;;;;;4.38;71.23;101530.47;10480519;28;20050;-61
2022/01/28 05:31:40;;;;;;;10.35;1.98;;;;;;;4.37;70.58;101539.31;10491020;28;20696;-61
2022/01/28 05:36:41;;;;;;;9.77;3.03;;;;;;;4.38;70.85;101548.91;10497808;28;20072;-61
2022/01/28 05:41:43;;;;;;;8.85;2.08;;;;;;;4.29;71.47;101528.13;10491379;28;20279;-62
2022/01/28 05:46:45;;;;;;;7.90;3.50;;;;;;;4.42;71.77;101529.44;10468788;28;20428;-63
2022/01/28 05:51:46;;;;;;;7.65;2.05;;;;;;;4.59;69.78;101550.84;10461064;28;20041;-62
2022/01/28 05:56:48;;;;;;;8.18;2.28;;;;;;;4.72;69.29;101561.81;10458624;28;20112;-61
2022/01/28 06:01:49;;;;;;;8.32;2.00;;;;;;;4.77;69.48;101549.31;10470354;28;20058;-59
2022/01/28 06:06:51;;;;;;;8.80;3.80;;;;;;;4.90;69.50;101560.28;10472909;28;20048;-62
2022/01/28 06:11:52;;;;;;;4.07;1.50;;;;;;;4.92;68.39;101540.00;10468292;28;20074;-62
2022/01/28 06:16:54;;;;;;;10.05;3.10;;;;;;;4.94;69.13;101540.78;10468164;28;20531;-62
2022/01/28 06:21:55;;;;;;;7.15;1.92;;;;;;;4.76;69.36;101541.47;10465383;28;20056;-61
2022/01/28 06:26:56;;;;;;;9.65;2.72;;;;;;;4.83;69.30;101568.47;10465719;28;20504;-63
2022/01/28 06:31:58;;;;;;;11.18;2.47;;;;;;;4.79;69.13;101573.00;10471096;28;20097;-61
2022/01/28 06:36:59;;;;;;;6.80;1.95;;;;;;;4.84;69.50;101601.88;10461306;28;20053;-60
2022/01/28 06:42:01;;;;;;;6.25;1.92;;;;;;;4.74;69.58;101581.09;10450369;28;20090;-63
2022/01/28 06:47:03;;;;;;;7.25;2.55;;;;;;;4.88;69.69;101620.19;10455602;28;20508;-63
2022/01/28 06:52:05;;;;;;;7.60;2.53;;;;;;;4.95;70.09;101637.53;10452609;28;20090;-59
2022/01/28 06:57:07;;;;;;;7.68;3.95;;;;;;;5.03;69.62;101660.13;10448127;28;20050;-62
2022/01/28 07:02:08;;;;;;;7.28;3.03;;;;;;;4.95;70.28;101692.06;10462350;28;20053;-62
2022/01/28 07:07:10;;;;;;;11.68;3.72;;;;;;;5.18;70.21;101712.41;10449189;28;21285;-63
2022/01/28 07:12:11;;;;;;;8.43;3.53;;;;;;;5.40;69.48;101679.94;10478733;28;20503;-62
2022/01/28 07:17:14;;;;;;;6.03;2.53;;;;;;;5.55;69.35;101694.38;10474261;28;20052;-61
2022/01/28 07:22:15;;;;;;;5.88;2.78;;;;;;;5.48;70.07;101696.41;10467922;28;20044;-59
2022/01/28 07:27:19;;;;;;;8.35;3.65;;;;;;;5.45;70.11;101704.41;10464957;28;20218;-60
2022/01/28 07:32:23;;;;;;;10.93;2.87;;;;;;;5.42;70.25;101707.16;10463768;28;20052;-59
2022/01/28 07:37:24;;;;;;;8.65;3.75;;;;;;;5.35;70.67;101703.88;10468136;28;20074;-60
2022/01/28 07:42:26;;;;;;;8.43;3.70;;;;;;;5.49;70.67;101716.59;10466894;28;20048;-59
2022/01/28 07:47:27;;;;;;;6.57;3.33;;;;;;;5.37;70.29;101682.72;10471373;28;20122;-59
2022/01/28 07:52:29;;;;;;;23.98;14.32;;;;;;;5.44;70.21;101718.56;10454191;28;20052;-60
2022/01/28 07:57:30;;;;;;;6.70;3.13;;;;;;;5.58;69.78;101740.03;10460907;28;20056;-60
2022/01/28 08:02:32;;;;;;;10.20;4.85;;;;;;;5.66;69.67;101740.63;10453000;28;20045;-59
2022/01/28 08:07:33;;;;;;;7.75;3.63;;;;;;;5.73;69.13;101724.56;10462536;28;20048;-57
2022/01/28 08:12:46;;;;;;;5.10;2.80;;;;;;;5.76;69.02;101740.28;10464385;28;20045;-59
2022/01/28 08:17:47;;;;;;;9.75;3.47;;;;;;;5.86;68.72;101736.41;10470586;28;20048;-61
2022/01/28 08:22:52;;;;;;;10.68;3.17;;;;;;;5.91;68.95;101757.38;10460522;28;20052;-59
2022/01/28 08:27:54;;;;;;;5.97;3.70;;;;;;;6.05;68.96;101767.44;10468053;28;20051;-60
2022/01/28 08:32:56;;;;;;;8.68;2.97;;;;;;;6.05;67.88;101754.22;10468457;28;20048;-59
2022/01/28 08:37:58;;;;;;;12.43;3.40;;;;;;;6.14;67.43;101777.69;10462235;28;22426;-59
2022/01/28 08:42:59;;;;;;;8.38;2.45;;;;;;;5.77;67.47;101786.94;10469317;28;20431;-59
2022/01/28 08:48:01;;;;;;;8.25;2.67;;;;;;;5.70;68.52;101778.38;10463915;28;20074;-59
2022/01/28 08:53:02;;;;;;;8.32;3.55;;;;;;;6.14;67.81;101782.97;10451734;28;20052;-59
2022/01/28 08:58:05;;;;;;;6.90;2.83;;;;;;;6.07;67.19;101794.72;10462343;28;20544;-59
2022/01/28 09:03:06;;;;;;;8.82;3.10;;;;;;;6.09;68.73;101806.09;10469824;28;20054;-59
2022/01/28 09:08:09;;;;;;;10.80;4.20;;;;;;;6.10;68.85;101791.97;10446214;28;20048;-59
2022/01/28 09:13:22;;;;;;;6.47;3.25;;;;;;;6.23;68.40;101798.50;10467976;28;20408;-62
2022/01/28 09:18:24;;;;;;;9.60;2.60;;;;;;;6.03;67.39;101790.44;10466502;28;20546;-59
2022/01/28 09:23:26;;;;;;;7.65;2.58;;;;;;;5.93;67.30;101793.41;10457644;28;20048;-60
2022/01/28 09:28:28;;;;;;;6.30;2.75;;;;;;;5.84;67.63;101791.94;10465907;28;20052;-60
2022/01/28 09:33:29;;;;;;;8.45;2.30;;;;;;;5.64;67.42;101815.56;10465874;28;20048;-60
2022/01/28 09:38:30;;;;;;;4.40;2.60;;;;;;;6.16;65.95;101812.88;10461508;28;20095;-60
2022/01/28 09:43:32;;;;;;;5.35;2.20;;;;;;;6.46;63.65;101836.44;10467501;28;20060;-60
2022/01/28 09:48:34;;;;;;;9.40;2.47;;;;;;;6.56;63.56;101811.38;10446468;28;20044;-59
2022/01/28 09:53:35;;;;;;;7.95;2.50;;;;;;;6.69;61.71;101825.81;10466362;28;20053;-60
2022/01/28 09:58:37;;;;;;;6.90;3.20;;;;;;;6.73;62.43;101831.88;10465132;28;20040;-60
2022/01/28 10:03:38;;;;;;;8.82;3.45;;;;;;;6.58;62.81;101845.72;10466897;28;20060;-59
2022/01/28 10:08:53;;;;;;;9.02;3.47;;;;;;;6.54;63.44;101848.47;10465995;28;20055;-60
2022/01/28 10:13:55;;;;;;;9.83;3.83;;;;;;;6.55;64.70;101847.53;10463746;28;20052;-60
2022/01/28 10:19:09;;;;;;;10.55;3.38;;;;;;;6.65;64.58;101848.06;10459628;28;20415;-60
2022/01/28 10:24:21;;;;;;;9.75;3.38;;;;;;;6.65;64.39;101850.69;10445377;28;20414;-60
2022/01/28 10:29:31;;;;;;;7.38;3.30;;;;;;;6.82;63.49;101851.84;10470663;28;20044;-60
2022/01/28 10:34:42;;;;;;;6.47;2.67;;;;;;;7.02;62.85;101857.19;10461764;28;20470;-60
2022/01/28 10:39:57;;;;;;;7.53;3.00;;;;;;;7.06;63.06;101858.78;10464126;28;20044;-60
2022/01/28 10:45:01;;;;;;;9.23;2.33;;;;;;;7.49;62.09;101860.59;10473157;28;20098;-60
2022/01/28 10:50:27;;;;;;;8.82;3.30;;;;;;;7.71;61.80;101861.41;10472662;28;20044;-61
2022/01/28 10:55:31;;;;;;;8.77;3.35;;;;;;;7.36;61.73;101855.81;10471799;28;20052;-59
2022/01/28 11:00:36;;;;;;;6.60;3.00;;;;;;;7.19;61.24;101876.81;10452597;28;20056;-61
2022/01/28 11:05:39;;;;;;;5.60;2.67;;;;;;;7.08;60.49;101864.88;10468401;28;20067;-60
2022/01/28 11:10:42;;;;;;;8.15;2.90;;;;;;;8.32;58.28;101867.59;10466398;28;20189;-60
2022/01/28 11:15:44;;;;;;;7.20;2.20;;;;;;;8.89;55.88;101875.63;10463963;28;20036;-60
2022/01/28 11:20:50;;;;;;;8.75;2.55;;;;;;;13.43;43.63;101866.75;10467408;28;20433;-57
2022/01/28 11:26:17;;;;;;;10.77;2.08;;;;;;;10.31;48.40;101860.47;10466039;28;20524;-63
2022/01/28 11:31:54;;;;;;;7.47;2.40;;;;;;;9.80;49.22;101871.13;10466311;28;20125;-62
2022/01/28 11:37:17;;;;;;;8.43;2.92;;;;;;;13.89;38.77;101848.53;10448648;28;20049;-61
2022/01/28 11:42:26;;;;;;;7.05;1.83;;;;;;;14.23;37.22;101851.53;10448451;28;20045;-59
2022/01/28 11:47:31;;;;;;;7.72;2.00;;;;;;;11.46;41.86;101813.19;10466266;28;20067;-58
2022/01/28 11:52:38;;;;;;;9.35;3.00;;;;;;;11.07;43.47;101853.69;10466329;28;20110;-59
2022/01/28 11:58:01;;;;;;;5.30;2.30;;;;;;;10.40;46.20;101865.38;10466374;28;20051;-59
2022/01/28 12:03:17;;;;;;;9.20;3.00;;;;;;;9.33;47.89;101861.13;10453272;28;20397;-59
2022/01/28 12:08:19;;;;;;;7.85;2.42;;;;;;;9.01;48.86;101831.69;10464513;28;20150;-60
2022/01/28 12:13:32;;;;;;;9.70;2.50;;;;;;;9.31;49.43;101853.22;10467751;28;20048;-59
2022/01/28 12:18:47;;;;;;;6.35;2.38;;;;;;;16.33;35.16;101841.28;10467359;28;20067;-61
2022/01/28 12:23:52;;;;;;;5.72;1.75;;;;;;;16.79;32.15;101833.03;10473304;28;20062;-60
2022/01/28 12:28:55;;;;;;;7.22;2.47;;;;;;;17.20;31.41;101833.28;10467760;28;20162;-60
2022/01/28 12:34:00;;;;;;;6.57;2.10;;;;;;;13.94;37.61;101831.19;10471633;28;20040;-59
2022/01/28 12:44:15;;;;;;;7.50;2.20;;;;;;;14.67;36.32;101834.13;10470561;28;20064;-62
2022/01/28 12:49:23;;;;;;;8.38;2.50;;;;;;;13.59;38.00;101838.97;10463074;28;20513;-59
2022/01/28 12:54:44;;;;;;;7.68;2.03;;;;;;;15.29;34.97;101845.66;10462940;28;20058;-60
2022/01/28 12:59:48;;;;;;;6.35;2.47;;;;;;;12.80;38.99;101827.25;10465483;28;20395;-60
2022/01/28 13:04:59;;;;;;;9.27;2.08;;;;;;;13.59;36.91;101850.53;10465977;28;20049;-58
2022/01/28 13:10:00;;;;;;;10.38;2.63;;;;;;;13.93;38.63;101848.22;10464830;28;20059;-61
2022/01/28 13:15:08;;;;;;;8.00;2.30;;;;;;;16.34;32.45;101843.00;10472929;28;20054;-61
2022/01/28 13:20:10;;;;;;;8.30;2.58;;;;;;;15.25;35.25;101828.09;10449268;28;20048;-61
2022/01/28 13:25:18;;;;;;;10.38;2.67;;;;;;;14.79;34.55;101832.38;10470089;28;20153;-62
2022/01/28 13:30:19;;;;;;;7.45;3.50;;;;;;;18.18;30.71;101836.69;10461090;28;20060;-61
2022/01/28 13:35:23;;;;;;;7.75;2.33;;;;;;;20.27;27.21;101835.50;10465827;28;20197;-60
2022/01/28 13:40:26;;;;;;;;;;;;;;;17.43;29.29;101830.50;10446031;28;20052;-62
2022/01/28 13:45:36;;;;;;;10.10;2.42;;;;;;;21.43;24.32;101832.19;10444763;28;19932;-61
2022/01/28 13:50:44;;;;;;;6.93;1.95;;;;;;;17.83;28.79;101838.75;10466295;28;20520;-62
2022/01/28 13:55:47;;;;;;;6.18;1.75;;;;;;;17.95;28.26;101835.97;10465334;28;20051;-61
2022/01/28 14:00:50;;;;;;;6.20;2.30;;;;;;;15.20;32.66;101841.84;10462597;28;20360;-62
2022/01/28 14:05:57;;;;;;;5.55;2.35;;;;;;;12.61;37.38;101838.25;10460119;28;20553;-61
2022/01/28 14:11:32;;;;;;;7.63;1.83;;;;;;;13.66;35.57;101818.88;10466085;28;20055;-60
2022/01/28 14:16:34;;;;;;;7.45;2.30;;;;;;;13.76;36.94;101817.25;10473038;28;20064;-61
2022/01/28 14:21:35;;;;;;;6.80;1.98;;;;;;;13.11;36.60;101835.94;10472870;28;20157;-61
2022/01/28 14:26:41;;;;;;;6.40;1.88;;;;;;;13.25;36.77;101831.34;10474914;28;20189;-62
2022/01/28 14:31:43;;;;;;;8.85;2.80;;;;;;;12.80;38.63;101822.75;10473128;28;20056;-61
2022/01/28 14:36:45;;;;;;;8.95;2.53;;;;;;;11.94;39.46;101798.81;10470023;28;20062;-63
2022/01/28 14:41:48;;;;;;;6.78;2.45;;;;;;;12.58;38.50;101815.28;10470792;28;20082;-62
2022/01/28 14:46:49;;;;;;;6.20;2.57;;;;;;;12.55;39.38;101804.78;10472158;28;20052;-64
2022/01/28 14:51:58;;;;;;;8.85;2.60;;;;;;;15.02;35.77;101809.22;10476109;28;20059;-63
2022/01/28 14:57:03;;;;;;;7.82;2.40;;;;;;;16.11;32.76;101805.38;10455063;28;20056;-61
2022/01/28 15:02:08;;;;;;;6.50;2.00;;;;;;;15.18;34.54;101817.81;10474256;28;20048;-61
2022/01/28 15:07:10;;;;;;;5.53;1.35;;;;;;;16.01;33.66;101807.09;10453400;28;20437;-62
2022/01/28 15:12:11;;;;;;;9.25;2.80;;;;;;;16.91;31.63;101814.22;10479710;28;20060;-61
2022/01/28 15:17:17;;;;;;;8.00;2.45;;;;;;;16.95;31.29;101816.53;10471344;28;20052;-60
2022/01/28 15:22:21;;;;;;;8.55;2.60;;;;;;;16.74;31.47;101810.19;10450880;28;20060;-61
2022/01/28 15:27:23;;;;;;;7.47;2.35;;;;;;;14.46;35.06;101832.00;10464048;28;20412;-61
2022/01/28 15:38:05;;;;;;;6.75;2.72;;;;;;;10.97;42.62;101832.03;10473464;28;20431;-60
2022/01/28 15:43:06;;;;;;;8.82;2.72;;;;;;;10.48;43.09;101819.69;10473684;28;20149;-61
2022/01/28 15:48:07;;;;;;;11.27;2.85;;;;;;;10.05;44.71;101840.59;10468838;28;20307;-60
2022/01/28 15:53:09;;;;;;;10.32;2.53;;;;;;;9.45;45.78;101812.66;10471606;28;20078;-60
2022/01/28 15:58:10;;;;;;;8.68;2.75;;;;;;;9.48;46.35;101833.75;10468986;28;20043;-60
2022/01/28 16:03:12;;;;;;;11.32;4.72;;;;;;;9.41;46.39;101832.34;10468462;28;20049;-61
2022/01/28 16:08:13;;;;;;;10.70;3.33;;;;;;;9.28;46.48;101841.88;10473455;28;21514;-62
2022/01/28 16:13:26;;;;;;;11.27;3.90;;;;;;;9.05;47.51;101843.84;10472542;28;20420;-60
2022/01/28 16:18:28;;;;;;;10.25;4.30;;;;;;;9.05;48.14;101849.16;10487050;28;20089;-62
2022/01/28 16:23:30;;;;;;;11.20;3.95;;;;;;;8.91;48.48;101844.53;10480482;28;20261;-63
2022/01/28 16:28:31;;;;;;;6.78;2.42;;;;;;;8.65;49.75;101846.63;10493785;28;20097;-62
2022/01/28 16:33:32;;;;;;;6.32;2.38;;;;;;;8.47;50.10;101850.16;10467319;28;20052;-61
2022/01/28 16:38:34;;;;;;;8.75;3.58;;;;;;;8.62;49.94;101867.16;10470762;28;20302;-59
2022/01/28 16:43:38;;;;;;;8.57;3.13;;;;;;;8.57;50.55;101867.38;10465970;28;20040;-59
2022/01/28 16:48:40;;;;;;;10.25;3.25;;;;;;;8.28;50.76;101866.00;10455533;28;20048;-62
2022/01/28 16:53:41;;;;;;;9.60;2.97;;;;;;;8.19;51.17;101887.66;10469276;28;20056;-59
2022/01/28 16:58:43;;;;;;;8.30;3.20;;;;;;;8.08;51.46;101885.47;10467421;28;20057;-60
2022/01/28 17:03:47;;;;;;;9.23;3.72;;;;;;;7.94;51.83;101902.84;10469756;28;20052;-60
2022/01/28 17:08:54;;;;;;;9.68;3.33;;;;;;;7.74;52.80;101890.44;10466343;28;20139;-59
2022/01/28 17:13:55;;;;;;;7.20;3.47;;;;;;;7.78;53.79;101905.28;10468574;28;20143;-61
2022/01/28 17:18:57;;;;;;;10.95;4.05;;;;;;;7.64;53.78;101886.47;10455798;28;20071;-61
2022/01/28 17:23:58;;;;;;;11.13;4.20;;;;;;;7.67;53.96;101902.25;10466111;28;20052;-61
2022/01/28 17:28:59;;;;;;;9.90;3.42;;;;;;;7.61;54.02;101910.44;10458170;28;20609;-60
2022/01/28 17:34:01;;;;;;;11.13;3.85;;;;;;;7.58;54.79;101914.09;10471659;28;20043;-60
2022/01/28 17:39:08;;;;;;;7.82;3.63;;;;;;;7.52;54.89;101918.75;10467896;28;20048;-60
2022/01/28 17:44:10;;;;;;;9.05;3.47;;;;;;;7.43;55.32;101915.59;10468912;28;20055;-60
2022/01/28 17:49:11;;;;;;;7.53;4.00;;;;;;;7.07;54.99;101871.13;10467511;28;20372;-60
2022/01/28 17:54:12;;;;;;;10.52;3.63;;;;;;;7.31;55.68;101909.91;10459791;28;20053;-61
2022/01/28 17:59:14;;;;;;;14.05;4.43;;;;;;;7.35;55.60;101906.22;10461989;28;21090;-59
2022/01/28 18:04:15;;;;;;;8.85;3.38;;;;;;;7.35;55.01;101915.00;10466174;28;20427;-60
2022/01/28 18:09:17;;;;;;;14.27;4.80;;;;;;;7.31;56.11;101916.09;10463524;28;20052;-61
2022/01/28 18:14:18;;;;;;;10.30;4.63;;;;;;;7.41;56.16;101917.41;10464482;28;20040;-62
2022/01/28 18:19:19;;;;;;;12.13;4.75;;;;;;;7.37;56.12;101920.25;10459853;28;20124;-59
2022/01/28 18:24:21;;;;;;;13.75;5.45;;;;;;;7.39;55.34;101913.13;10464643;28;20256;-62
2022/01/28 18:29:25;;;;;;;9.88;5.50;;;;;;;7.34;55.93;101915.97;10465409;28;20418;-61
2022/01/28 18:34:28;;;;;;;11.20;5.47;;;;;;;7.34;55.77;101921.25;10456919;28;20048;-61
2022/01/28 18:39:29;;;;;;;12.95;5.05;;;;;;;7.29;55.90;101917.06;10464595;28;20055;-62
2022/01/28 18:44:40;;;;;;;9.07;4.72;;;;;;;7.30;56.04;101922.28;10461000;28;20419;-63
2022/01/28 18:49:43;;;;;;;13.70;6.20;;;;;;;7.20;56.28;101915.63;10464393;28;21325;-62
2022/01/28 18:54:44;;;;;;;11.68;5.00;;;;;;;7.12;55.97;101893.91;10463961;28;20044;-62
2022/01/28 18:59:45;;;;;;;11.43;5.05;;;;;;;7.20;56.13;101902.41;10463006;28;20056;-62
2022/01/28 19:04:47;;;;;;;8.73;4.90;;;;;;;7.20;55.94;101889.16;10467693;28;20062;-61
2022/01/28 19:09:49;;;;;;;14.48;4.88;;;;;;;7.19;56.08;101898.00;10477531;28;20052;-61
2022/01/28 19:14:52;;;;;;;13.20;4.75;;;;;;;7.23;56.29;101894.31;10476454;28;20303;-61
2022/01/28 19:19:54;;;;;;;12.90;4.57;;;;;;;7.24;56.19;101885.47;10466920;28;20048;-60
2022/01/28 19:24:55;;;;;;;8.35;4.53;;;;;;;7.18;56.59;101889.22;10475130;28;20454;-61
2022/01/28 19:29:58;;;;;;;13.98;5.57;;;;;;;6.98;55.94;101871.47;10472713;28;20532;-62
2022/01/28 19:34:59;;;;;;;13.40;4.95;;;;;;;7.10;55.74;101883.38;10474074;28;20055;-61
2022/01/28 19:40:01;;;;;;;10.10;4.50;;;;;;;7.03;55.91;101882.75;10475021;28;20423;-61
2022/01/28 19:45:03;;;;;;;13.48;4.63;;;;;;;6.92;56.65;101898.19;10472254;28;20070;-64
2022/01/28 19:50:07;;;;;;;6.60;3.38;;;;;;;6.79;57.10;101889.00;10471377;28;20629;-61
2022/01/28 19:55:09;;;;;;;13.00;4.63;;;;;;;6.47;57.89;101872.53;10470406;28;20050;-62
2022/01/28 20:00:14;;;;;;;7.68;3.80;;;;;;;6.63;58.41;101888.72;10467437;28;20135;-63
2022/01/28 20:05:18;;;;;;;8.65;3.75;;;;;;;6.57;59.12;101897.75;10471944;28;20054;-62
2022/01/28 20:10:19;;;;;;;9.65;4.38;;;;;;;6.35;60.56;101882.69;10466663;28;20086;-61
2022/01/28 20:15:21;;;;;;;11.13;5.85;;;;;;;6.11;61.97;101878.25;10467294;28;20435;-61
2022/01/28 20:20:23;;;;;;;10.07;4.95;;;;;;;6.06;62.81;101885.50;10468535;28;21421;-62
2022/01/28 20:25:25;;;;;;;11.32;5.43;;;;;;;5.95;63.77;101881.44;10465489;28;20051;-63
2022/01/28 20:30:28;;;;;;;9.30;6.00;;;;;;;6.08;63.60;101881.91;10466574;28;20088;-62
2022/01/28 20:35:31;;;;;;;11.45;6.25;;;;;;;6.27;63.55;101878.59;10483653;28;20674;-63
2022/01/28 20:40:33;;;;;;;12.82;6.85;;;;;;;6.26;63.82;101872.44;10467581;28;20047;-62
2022/01/28 20:45:35;;;;;;;11.65;6.45;;;;;;;6.10;65.04;101865.97;10467931;28;20054;-61
2022/01/28 20:50:36;;;;;;;8.93;6.60;;;;;;;6.11;65.62;101867.69;10471454;28;20048;-62
2022/01/28 20:55:38;;;;;;;8.45;6.38;;;;;;;5.93;66.83;101861.25;10464143;28;20055;-62
2022/01/28 21:00:39;;;;;;;11.00;7.65;;;;;;;6.07;66.76;101852.88;10463662;28;20583;-62
2022/01/28 21:05:41;;;;;;;10.02;7.60;;;;;;;5.94;67.00;101849.75;10465638;28;20074;-62
2022/01/28 21:10:42;;;;;;;11.05;7.28;;;;;;;5.90;67.11;101843.72;10459430;28;20051;-63
2022/01/28 21:15:45;;;;;;;9.45;7.50;;;;;;;5.79;67.51;101836.16;10466029;28;20091;-62
2022/01/28 21:20:47;;;;;;;8.35;6.45;;;;;;;5.74;68.07;101859.25;10459625;28;20045;-62
2022/01/28 21:25:50;;;;;;;11.27;7.28;;;;;;;5.70;68.29;101844.41;10447672;28;20505;-62
2022/01/28 21:30:51;;;;;;;11.23;7.18;;;;;;;5.70;68.36;101856.78;10462648;28;20055;-62
2022/01/28 21:35:53;;;;;;;9.73;6.47;;;;;;;5.68;68.48;101850.69;10456688;28;20044;-62
2022/01/28 21:40:56;;;;;;;8.68;6.85;;;;;;;5.55;69.54;101843.16;10459590;28;20059;-62
2022/01/28 21:45:57;;;;;;;8.40;7.00;;;;;;;5.56;69.49;101836.13;10457524;28;20523;-61
2022/01/28 21:50:59;;;;;;;10.88;7.53;;;;;;;5.50;69.62;101839.81;10460710;28;20081;-62
2022/01/28 21:56:01;;;;;;;8.23;6.88;;;;;;;5.52;70.14;101840.63;10445314;28;21086;-62
2022/01/28 22:01:02;;;;;;;10.23;7.03;;;;;;;5.51;70.50;101830.13;10476073;28;20055;-63
2022/01/28 22:06:04;;;;;;;10.20;7.45;;;;;;;5.39;71.25;101815.53;10487771;28;20467;-62
2022/01/28 22:11:05;;;;;;;10.25;8.70;;;;;;;5.30;71.40;101811.47;10487889;28;20143;-62
2022/01/28 22:16:07;;;;;;;10.43;7.32;;;;;;;5.16;71.72;101793.41;10487687;28;20262;-62
2022/01/28 22:21:08;;;;;;;10.23;7.07;;;;;;;5.23;72.16;101815.22;10491969;28;20459;-62
2022/01/28 22:26:10;;;;;;;10.90;8.48;;;;;;;5.17;71.94;101784.59;10482603;28;20076;-61
2022/01/28 22:31:12;;;;;;;11.90;8.27;;;;;;;5.25;72.54;101785.19;10471869;28;20139;-61
2022/01/28 22:36:16;;;;;;;10.32;8.10;;;;;;;5.25;72.55;101793.09;10470607;28;20578;-61
2022/01/28 22:41:17;;;;;;;11.05;8.10;;;;;;;5.16;72.58;101751.19;10491177;28;20048;-61
2022/01/28 22:46:20;;;;;;;12.10;8.10;;;;;;;5.16;73.32;101766.16;10481108;28;20054;-61
2022/01/28 22:51:21;;;;;;;11.88;8.70;;;;;;;5.07;73.64;101754.13;10488847;28;20131;-62
2022/01/28 22:56:24;;;;;;;14.50;9.88;;;;;;;5.12;74.04;101765.41;10494207;28;20049;-61
2022/01/28 23:01:27;;;;;;;15.30;10.68;;;;;;;5.09;74.30;101763.72;10492294;28;20079;-62
2022/01/28 23:06:30;;;;;;;16.08;11.20;;;;;;;5.27;74.06;101804.50;10489972;28;20456;-62
2022/01/28 23:11:32;;;;;;;14.02;11.07;;;;;;;5.28;74.07;101803.59;10481366;28;20055;-60
2022/01/28 23:16:33;;;;;;;14.57;11.00;;;;;;;5.42;73.71;101810.16;10500899;28;20504;-61
2022/01/28 23:21:34;;;;;;;15.20;11.57;;;;;;;5.38;73.63;101792.72;10493999;28;20052;-61
2022/01/28 23:26:40;;;;;;;13.57;11.38;;;;;;;5.44;74.19;101798.63;10468702;28;20424;-61
2022/01/28 23:31:48;;;;;;;17.13;12.70;;;;;;;5.42;73.85;101795.19;10490413;28;20143;-60
2022/01/28 23:36:49;;;;;;;16.17;12.45;;;;;;;5.46;74.08;101780.09;10491403;28;20040;-60
2022/01/28 23:41:51;;;;;;;15.50;12.48;;;;;;;5.39;74.32;101758.31;10491229;28;20138;-60
2022/01/28 23:46:52;;;;;;;15.98;11.77;;;;;;;5.47;74.09;101750.97;10499234;28;20711;-60
2022/01/28 23:51:53;;;;;;;17.50;14.23;;;;;;;5.48;74.06;101717.53;10483754;28;20135;-60
2022/01/28 23:56:55;;;;;;;18.85;13.65;;;;;;;5.36;75.09;101732.03;10463318;28;20048;-61
